createdAt,value
2022-12-26T00:01:03.098Z,44.90
2022-12-26T00:03:39.803Z,43.77
2022-12-26T00:06:14.103Z,45.00
2022-12-26T00:08:43.101Z,43.97
2022-12-26T00:11:13.699Z,44.60
2022-12-26T00:13:43.126Z,42.00
2022-12-26T00:16:13.550Z,44.90
2022-12-26T00:18:42.855Z,43.17
2022-12-26T00:21:13.128Z,44.83
2022-12-26T00:23:42.390Z,44.40
2022-12-26T00:26:14.298Z,39.20
2022-12-26T00:28:43.725Z,37.67
2022-12-26T00:31:13.859Z,31.33
2022-12-26T00:33:43.174Z,31.50
2022-12-26T00:36:14.110Z,31.97
2022-12-26T00:38:44.625Z,31.17
2022-12-26T00:41:16.234Z,35.63
2022-12-26T00:43:45.354Z,28.27
2022-12-26T00:46:14.249Z,26.87
2022-12-26T00:48:44.018Z,24.93
2022-12-26T00:51:12.568Z,35.27
2022-12-26T00:53:41.580Z,33.07
2022-12-26T00:56:10.157Z,30.70
2022-12-26T00:58:42.390Z,34.33
2022-12-26T01:01:15.204Z,31.90
2022-12-26T01:03:46.092Z,38.13
2022-12-26T01:06:14.989Z,36.30
2022-12-26T01:08:44.335Z,28.33
2022-12-26T01:11:15.289Z,28.60
2022-12-26T01:13:45.424Z,29.37
2022-12-26T01:16:13.901Z,26.87
2022-12-26T01:18:42.722Z,22.03
2022-12-26T01:21:12.005Z,23.67
2022-12-26T01:23:40.860Z,25.87
2022-12-26T01:26:17.734Z,29.57
2022-12-26T01:28:51.331Z,14.67
2022-12-26T01:31:20.900Z,11.63
2022-12-26T01:33:50.750Z,14.10
2022-12-26T01:36:19.754Z,13.90
2022-12-26T01:38:48.511Z,18.17
2022-12-26T01:41:21.018Z,26.00
2022-12-26T01:43:55.515Z,19.23
2022-12-26T01:46:27.865Z,28.63
2022-12-26T01:48:59.515Z,36.07
2022-12-26T01:51:32.703Z,31.83
2022-12-26T01:54:37.482Z,19.07
2022-12-26T01:56:53.515Z,17.20
2022-12-26T01:59:30.154Z,16.07
2022-12-26T02:02:01.142Z,24.50
2022-12-26T02:04:52.760Z,18.50
2022-12-26T02:07:21.571Z,19.20
2022-12-26T02:09:50.395Z,15.93
2022-12-26T02:12:35.259Z,14.10
2022-12-26T02:15:12.184Z,13.17
2022-12-26T02:17:42.735Z,12.83
2022-12-26T02:20:19.911Z,14.70
2022-12-26T02:23:36.074Z,13.50
2022-12-26T02:26:40.699Z,12.40
2022-12-26T02:29:39.672Z,14.80
2022-12-26T02:32:15.514Z,12.87
2022-12-26T02:34:54.534Z,12.70
2022-12-26T02:37:38.545Z,11.83
2022-12-26T02:40:33.138Z,12.40
2022-12-26T02:43:12.652Z,12.03
2022-12-26T02:46:04.431Z,11.67
2022-12-26T02:48:42.216Z,11.57
2022-12-26T02:51:38.976Z,11.77
2022-12-26T02:54:48.778Z,11.53
2022-12-26T02:57:38.685Z,12.10
2022-12-26T03:00:26.563Z,12.73
2022-12-26T03:03:16.665Z,9.63
2022-12-26T03:06:06.963Z,11.83
2022-12-26T03:08:57.140Z,11.47
2022-12-26T03:12:00.559Z,10.93
2022-12-26T03:14:33.360Z,11.60
2022-12-26T03:17:20.545Z,10.67
2022-12-26T03:20:00.506Z,11.77
2022-12-26T03:22:35.709Z,9.30
2022-12-26T03:25:25.423Z,9.23
2022-12-26T03:27:54.911Z,9.57
2022-12-26T03:30:41.174Z,11.13
2022-12-26T03:33:30.588Z,9.37
2022-12-26T03:35:58.605Z,12.37
2022-12-26T03:38:35.877Z,10.43
2022-12-26T03:41:28.621Z,11.07
2022-12-26T03:44:38.715Z,12.03
2022-12-26T03:47:36.486Z,11.57
2022-12-26T03:50:33.548Z,9.67
2022-12-26T03:53:28.869Z,10.20
2022-12-26T03:56:22.570Z,9.80
2022-12-26T03:59:12.802Z,10.97
2022-12-26T04:02:02.161Z,10.53
2022-12-26T04:04:56.989Z,10.90
2022-12-26T04:08:01.433Z,11.33
2022-12-26T04:10:51.805Z,10.10
2022-12-26T04:13:43.147Z,8.43
2022-12-26T04:16:40.336Z,11.50
2022-12-26T04:19:25.836Z,11.47
2022-12-26T04:22:21.882Z,11.27
2022-12-26T04:25:12.370Z,10.07
2022-12-26T04:27:58.765Z,9.57
2022-12-26T04:30:46.778Z,9.23
2022-12-26T04:33:42.779Z,9.20
2022-12-26T04:36:36.549Z,9.33
2022-12-26T04:39:28.505Z,9.23
2022-12-26T04:42:17.676Z,11.00
2022-12-26T04:44:49.963Z,10.87
2022-12-26T04:47:20.216Z,10.07
2022-12-26T04:50:06.294Z,9.20
2022-12-26T04:52:49.053Z,9.63
2022-12-26T04:55:18.125Z,10.57
2022-12-26T04:57:46.879Z,10.13
2022-12-26T05:00:16.394Z,10.53
2022-12-26T05:03:03.706Z,9.63
2022-12-26T05:05:55.063Z,9.90
2022-12-26T05:08:44.082Z,9.97
2022-12-26T05:11:12.700Z,8.13
2022-12-26T05:13:41.400Z,9.27
2022-12-26T05:16:27.396Z,10.20
2022-12-26T05:19:14.729Z,10.80
2022-12-26T05:22:01.194Z,9.63
2022-12-26T05:24:53.054Z,10.10
2022-12-26T05:27:39.435Z,9.10
2022-12-26T05:30:09.580Z,9.53
2022-12-26T05:32:55.503Z,9.77
2022-12-26T05:35:25.688Z,9.57
2022-12-26T05:37:54.174Z,10.07
2022-12-26T05:40:22.882Z,9.63
2022-12-26T05:42:51.519Z,9.40
2022-12-26T05:45:20.603Z,9.50
2022-12-26T05:47:52.047Z,8.73
2022-12-26T05:50:21.120Z,11.43
2022-12-26T05:52:51.116Z,11.97
2022-12-26T05:55:20.262Z,10.87
2022-12-26T05:57:48.767Z,9.60
2022-12-26T06:00:18.091Z,10.10
2022-12-26T06:02:47.282Z,9.70
2022-12-26T06:05:16.351Z,9.60
2022-12-26T06:07:44.849Z,8.83
2022-12-26T06:10:15.151Z,10.50
2022-12-26T06:12:43.646Z,9.63
2022-12-26T06:15:12.879Z,7.37
2022-12-26T06:17:41.308Z,9.47
2022-12-26T06:20:11.009Z,8.43
2022-12-26T06:22:39.656Z,7.93
2022-12-26T06:25:09.452Z,8.03
2022-12-26T06:27:39.461Z,8.77
2022-12-26T06:30:09.000Z,7.93
2022-12-26T06:32:37.477Z,9.30
2022-12-26T06:35:08.258Z,8.67
2022-12-26T06:37:36.709Z,8.27
2022-12-26T06:40:06.484Z,8.33
2022-12-26T06:42:35.054Z,8.73
2022-12-26T06:45:05.677Z,7.20
2022-12-26T06:47:34.176Z,8.47
2022-12-26T06:50:02.847Z,9.03
2022-12-26T06:52:31.273Z,5.63
2022-12-26T06:55:00.024Z,7.07
2022-12-26T06:57:28.512Z,9.63
2022-12-26T06:59:57.198Z,9.47
2022-12-26T07:02:27.257Z,7.47
2022-12-26T07:04:56.420Z,11.17
2022-12-26T07:07:24.985Z,8.17
2022-12-26T07:09:54.294Z,8.67
2022-12-26T07:12:22.911Z,10.20
2022-12-26T07:14:52.690Z,10.57
2022-12-26T07:17:24.082Z,15.87
2022-12-26T07:19:54.448Z,39.50
2022-12-26T07:22:22.945Z,30.97
2022-12-26T07:24:51.618Z,34.00
2022-12-26T07:27:20.147Z,25.97
2022-12-26T07:29:48.897Z,23.77
2022-12-26T07:32:17.617Z,20.23
2022-12-26T07:34:46.487Z,18.67
2022-12-26T07:37:16.286Z,17.33
2022-12-26T07:39:45.313Z,19.33
2022-12-26T07:42:13.725Z,22.40
2022-12-26T07:44:42.959Z,17.70
2022-12-26T07:47:11.404Z,12.87
2022-12-26T07:49:40.403Z,18.90
2022-12-26T07:52:08.936Z,18.73
2022-12-26T07:54:39.240Z,16.33
2022-12-26T07:57:47.427Z,14.20
2022-12-26T07:59:58.818Z,10.60
2022-12-26T08:02:27.414Z,10.23
2022-12-26T08:04:56.398Z,9.93
2022-12-26T08:07:24.933Z,10.07
2022-12-26T08:09:55.085Z,11.20
2022-12-26T08:12:26.760Z,9.97
2022-12-26T08:14:55.438Z,10.50
2022-12-26T08:17:23.961Z,9.83
2022-12-26T08:19:52.894Z,9.60
2022-12-26T08:22:21.583Z,9.27
2022-12-26T08:24:50.300Z,9.23
2022-12-26T08:27:20.233Z,8.27
2022-12-26T08:29:49.111Z,9.33
2022-12-26T08:32:17.665Z,9.23
2022-12-26T08:34:46.402Z,8.47
2022-12-26T08:37:14.876Z,7.43
2022-12-26T08:39:43.642Z,7.60
2022-12-26T08:42:12.037Z,7.73
2022-12-26T08:44:42.223Z,8.87
2022-12-26T08:47:10.708Z,8.63
2022-12-26T08:49:39.457Z,9.10
2022-12-26T08:52:08.191Z,6.77
2022-12-26T08:54:37.257Z,8.60
2022-12-26T08:57:05.670Z,9.00
2022-12-26T08:59:34.499Z,8.20
2022-12-26T09:02:04.731Z,9.10
2022-12-26T09:04:33.766Z,9.17
2022-12-26T09:07:02.361Z,8.60
2022-12-26T09:09:31.414Z,10.03
2022-12-26T09:11:59.868Z,9.77
2022-12-26T09:14:28.671Z,9.00
2022-12-26T09:16:57.740Z,9.23
2022-12-26T09:19:29.785Z,9.70
2022-12-26T09:22:12.089Z,9.50
2022-12-26T09:24:40.934Z,10.43
2022-12-26T09:27:10.300Z,8.93
2022-12-26T09:29:39.434Z,9.30
2022-12-26T09:32:08.258Z,9.10
2022-12-26T09:34:38.514Z,8.83
2022-12-26T09:37:07.393Z,9.20
2022-12-26T09:39:36.651Z,7.70
2022-12-26T09:42:15.471Z,8.33
2022-12-26T09:44:52.202Z,7.17
2022-12-26T09:47:33.907Z,9.63
2022-12-26T09:50:12.652Z,8.60
2022-12-26T09:52:49.396Z,7.37
2022-12-26T09:55:36.051Z,8.87
2022-12-26T09:58:14.368Z,9.10
2022-12-26T10:00:49.939Z,9.10
2022-12-26T10:03:18.718Z,7.17
2022-12-26T10:06:01.777Z,8.20
2022-12-26T10:08:45.494Z,8.77
2022-12-26T10:11:22.439Z,8.63
2022-12-26T10:13:55.736Z,10.07
2022-12-26T10:16:32.546Z,8.87
2022-12-26T10:19:07.989Z,8.23
2022-12-26T10:21:47.758Z,7.40
2022-12-26T10:24:19.115Z,7.63
2022-12-26T10:26:51.104Z,8.33
2022-12-26T10:29:25.023Z,8.97
2022-12-26T10:31:58.005Z,9.60
2022-12-26T10:34:30.747Z,8.73
2022-12-26T10:37:05.474Z,9.10
2022-12-26T10:39:40.193Z,7.80
2022-12-26T10:42:15.583Z,8.47
2022-12-26T10:44:44.857Z,8.30
2022-12-26T10:47:28.719Z,8.13
2022-12-26T10:49:59.871Z,7.82
2022-12-26T10:52:36.147Z,8.48
2022-12-26T10:55:28.231Z,7.75
2022-12-26T10:57:55.635Z,9.10
2022-12-26T11:00:27.559Z,7.88
2022-12-26T11:03:07.415Z,8.52
2022-12-26T11:08:42.940Z,8.43
2022-12-26T11:11:15.390Z,8.55
2022-12-26T11:13:50.805Z,7.97
2022-12-26T11:16:26.873Z,8.65
2022-12-26T11:18:56.943Z,8.05
2022-12-26T11:21:27.423Z,6.95
2022-12-26T11:24:19.397Z,5.90
2022-12-26T11:26:48.287Z,6.97
2022-12-26T11:29:19.483Z,7.57
2022-12-26T11:31:55.101Z,7.28
2022-12-26T11:34:32.596Z,6.95
2022-12-26T11:37:02.049Z,7.75
2022-12-26T11:39:34.787Z,7.10
2022-12-26T11:42:11.069Z,8.00
2022-12-26T11:44:45.420Z,8.48
2022-12-26T11:47:16.096Z,7.13
2022-12-26T11:49:54.327Z,7.00
2022-12-26T11:52:39.014Z,6.40
2022-12-26T11:55:29.229Z,6.63
2022-12-26T11:58:00.163Z,6.38
2022-12-26T12:00:30.122Z,7.40
2022-12-26T12:02:58.718Z,7.32
2022-12-26T12:05:40.113Z,6.32
2022-12-26T12:08:34.011Z,9.07
2022-12-26T12:11:23.238Z,9.02
2022-12-26T12:14:02.289Z,6.70
2022-12-26T12:16:44.389Z,7.38
2022-12-26T12:19:24.434Z,7.50
2022-12-26T12:22:19.207Z,8.70
2022-12-26T12:25:05.685Z,7.15
2022-12-26T12:27:41.003Z,8.95
2022-12-26T12:30:19.135Z,7.50
2022-12-26T12:33:10.124Z,7.97
2022-12-26T12:35:54.451Z,9.10
2022-12-26T12:38:34.029Z,8.55
2022-12-26T12:41:19.786Z,7.60
2022-12-26T12:43:57.063Z,7.55
2022-12-26T12:46:34.883Z,8.27
2022-12-26T12:49:41.972Z,8.55
2022-12-26T12:52:21.153Z,8.05
2022-12-26T12:55:07.562Z,9.23
2022-12-26T12:57:42.058Z,8.70
2022-12-26T13:00:19.505Z,8.57
2022-12-26T13:02:54.621Z,7.45
2022-12-26T13:05:44.669Z,9.43
2022-12-26T13:08:19.805Z,8.38
2022-12-26T13:10:55.155Z,10.55
2022-12-26T13:13:28.225Z,10.27
2022-12-26T13:16:04.496Z,9.65
2022-12-26T13:18:37.735Z,11.05
2022-12-26T13:21:08.407Z,9.13
2022-12-26T13:23:58.305Z,8.15
2022-12-26T13:26:31.535Z,9.32
2022-12-26T13:29:05.206Z,8.77
2022-12-26T13:31:36.928Z,8.02
2022-12-26T13:34:09.266Z,9.68
2022-12-26T13:36:41.950Z,8.52
2022-12-26T13:39:34.310Z,7.93
2022-12-26T13:42:50.880Z,9.88
2022-12-26T13:45:59.093Z,8.75
2022-12-26T13:48:59.489Z,9.30
2022-12-26T13:51:59.523Z,6.72
2022-12-26T13:54:30.092Z,7.32
2022-12-26T13:57:32.599Z,8.02
2022-12-26T14:00:18.869Z,7.32
2022-12-26T14:03:24.015Z,7.57
2022-12-26T14:06:23.250Z,7.97
2022-12-26T14:09:11.056Z,7.63
2022-12-26T14:11:56.397Z,7.72
2022-12-26T14:14:34.790Z,6.35
2022-12-26T14:17:20.456Z,5.60
2022-12-26T14:19:59.875Z,7.63
2022-12-26T14:22:39.752Z,6.53
2022-12-26T14:25:18.995Z,8.25
2022-12-26T14:27:55.323Z,8.50
2022-12-26T14:30:29.753Z,7.18
2022-12-26T14:33:14.408Z,8.68
2022-12-26T14:35:53.742Z,8.23
2022-12-26T14:38:36.475Z,6.07
2022-12-26T14:41:09.289Z,7.30
2022-12-26T14:43:38.702Z,6.87
2022-12-26T14:46:30.945Z,6.63
2022-12-26T14:49:18.329Z,6.20
2022-12-26T14:51:47.368Z,6.20
2022-12-26T14:54:50.910Z,5.20
2022-12-26T14:57:45.745Z,6.17
2022-12-26T15:00:27.773Z,6.18
2022-12-26T15:03:30.118Z,6.47
2022-12-26T15:06:29.151Z,7.13
2022-12-26T15:09:12.868Z,6.57
2022-12-26T15:12:05.861Z,6.70
2022-12-26T15:15:11.811Z,5.50
2022-12-26T15:17:48.607Z,6.63
2022-12-26T15:20:44.384Z,7.23
2022-12-26T15:23:38.774Z,6.97
2022-12-26T15:26:51.956Z,7.43
2022-12-26T15:29:46.773Z,6.73
2022-12-26T15:32:21.020Z,6.87
2022-12-26T15:35:00.629Z,7.10
2022-12-26T15:37:46.581Z,7.30
2022-12-26T15:40:23.579Z,7.60
2022-12-26T15:43:06.721Z,9.20
2022-12-26T15:45:46.358Z,6.17
2022-12-26T15:48:29.912Z,8.10
2022-12-26T15:51:02.602Z,7.57
2022-12-26T15:53:42.691Z,7.82
2022-12-26T15:56:42.875Z,8.07
2022-12-26T15:59:44.991Z,8.70
2022-12-26T16:02:16.095Z,9.97
2022-12-26T16:04:50.729Z,10.47
2022-12-26T16:07:27.495Z,9.05
2022-12-26T16:09:57.763Z,8.83
2022-12-26T16:12:30.906Z,7.10
2022-12-26T16:15:14.640Z,7.43
2022-12-26T16:17:44.255Z,8.83
2022-12-26T16:20:41.477Z,7.50
2022-12-26T16:23:14.487Z,7.43
2022-12-26T16:25:48.329Z,8.17
2022-12-26T16:28:23.845Z,7.67
2022-12-26T16:30:52.961Z,7.33
2022-12-26T16:33:21.874Z,7.17
2022-12-26T16:35:57.532Z,7.27
2022-12-26T16:38:32.391Z,7.60
2022-12-26T16:41:01.112Z,8.13
2022-12-26T16:43:34.624Z,8.00
2022-12-26T16:46:06.913Z,9.88
2022-12-26T16:48:37.911Z,8.50
2022-12-26T16:51:09.039Z,9.00
2022-12-26T16:53:45.473Z,9.27
2022-12-26T16:56:27.706Z,9.23
2022-12-26T16:59:04.929Z,10.53
2022-12-26T17:01:35.118Z,9.03
2022-12-26T17:04:07.092Z,10.37
2022-12-26T17:06:38.830Z,8.55
2022-12-26T17:09:10.731Z,8.20
2022-12-26T17:11:47.353Z,7.13
2022-12-26T17:14:21.250Z,7.93
2022-12-26T17:16:58.481Z,7.93
2022-12-26T17:19:29.977Z,8.25
2022-12-26T17:22:22.227Z,8.30
2022-12-26T17:24:52.253Z,9.03
2022-12-26T17:27:23.654Z,9.07
2022-12-26T17:29:57.051Z,9.97
2022-12-26T17:32:31.467Z,8.93
2022-12-26T17:35:07.218Z,9.13
2022-12-26T17:37:36.069Z,7.87
2022-12-26T17:40:20.076Z,7.60
2022-12-26T17:42:50.878Z,9.20
2022-12-26T17:45:23.754Z,6.73
2022-12-26T17:47:53.535Z,8.60
2022-12-26T17:50:23.019Z,7.23
2022-12-26T17:52:51.895Z,8.37
2022-12-26T17:55:24.999Z,9.20
2022-12-26T17:57:54.488Z,7.90
2022-12-26T18:00:27.206Z,9.43
2022-12-26T18:02:56.205Z,8.33
2022-12-26T18:05:25.186Z,9.27
2022-12-26T18:07:54.227Z,8.73
2022-12-26T18:10:24.736Z,9.30
2022-12-26T18:12:54.040Z,9.47
2022-12-26T18:15:26.455Z,9.33
2022-12-26T18:17:55.813Z,8.17
2022-12-26T18:20:27.803Z,8.27
2022-12-26T18:22:56.890Z,8.43
2022-12-26T18:25:27.803Z,8.87
2022-12-26T18:27:56.311Z,9.80
2022-12-26T18:30:27.881Z,8.17
2022-12-26T18:32:56.659Z,8.37
2022-12-26T18:35:25.555Z,9.27
2022-12-26T18:37:54.515Z,10.60
2022-12-26T18:40:30.890Z,9.93
2022-12-26T18:42:59.619Z,10.97
2022-12-26T18:45:30.698Z,10.20
2022-12-26T18:48:00.284Z,10.07
2022-12-26T18:50:30.632Z,9.03
2022-12-26T18:52:59.747Z,9.77
2022-12-26T18:55:28.895Z,8.73
2022-12-26T18:57:57.483Z,10.40
2022-12-26T19:00:26.880Z,10.13
2022-12-26T19:02:56.697Z,8.80
2022-12-26T19:05:28.753Z,8.87
2022-12-26T19:07:57.620Z,10.83
2022-12-26T19:10:28.316Z,9.43
2022-12-26T19:13:04.789Z,8.97
2022-12-26T19:15:35.368Z,11.60
2022-12-26T19:18:06.090Z,8.50
2022-12-26T19:20:40.599Z,8.00
2022-12-26T19:23:12.646Z,8.20
2022-12-26T19:25:41.465Z,9.27
2022-12-26T19:28:10.144Z,9.53
2022-12-26T19:30:39.391Z,8.23
2022-12-26T19:33:09.336Z,8.50
2022-12-26T19:35:38.224Z,8.73
2022-12-26T19:38:06.837Z,7.83
2022-12-26T19:40:35.718Z,7.57
2022-12-26T19:43:04.537Z,8.00
2022-12-26T19:45:33.403Z,9.77
2022-12-26T19:48:02.054Z,7.47
2022-12-26T19:50:32.195Z,7.03
2022-12-26T19:53:00.760Z,8.00
2022-12-26T19:55:29.571Z,7.67
2022-12-26T19:57:58.186Z,7.53
2022-12-26T20:00:27.314Z,7.40
2022-12-26T20:02:55.850Z,7.87
2022-12-26T20:05:27.123Z,8.40
2022-12-26T20:07:56.994Z,8.70
2022-12-26T20:10:26.315Z,7.87
2022-12-26T20:12:55.026Z,8.50
2022-12-26T20:15:23.915Z,9.50
2022-12-26T20:17:53.832Z,7.93
2022-12-26T20:20:23.458Z,7.83
2022-12-26T20:22:53.393Z,8.33
2022-12-26T20:25:23.854Z,8.30
2022-12-26T20:27:52.600Z,7.73
2022-12-26T20:30:21.911Z,8.07
2022-12-26T20:32:50.543Z,7.87
2022-12-26T20:35:19.522Z,7.80
2022-12-26T20:37:48.049Z,7.40
2022-12-26T20:40:17.052Z,7.67
2022-12-26T20:42:46.923Z,8.43
2022-12-26T20:45:15.780Z,8.30
2022-12-26T20:47:44.427Z,6.67
2022-12-26T20:50:13.177Z,6.77
2022-12-26T20:52:41.691Z,8.43
2022-12-26T20:55:11.076Z,7.20
2022-12-26T20:57:40.786Z,7.37
2022-12-26T21:00:12.796Z,7.40
2022-12-26T21:02:41.627Z,7.20
2022-12-26T21:05:10.858Z,6.87
2022-12-26T21:07:39.653Z,6.60
2022-12-26T21:10:09.896Z,7.70
2022-12-26T21:12:38.524Z,7.00
2022-12-26T21:15:10.753Z,6.97
2022-12-26T21:17:39.420Z,7.77
2022-12-26T21:20:09.706Z,7.80
2022-12-26T21:22:38.346Z,7.40
2022-12-26T21:25:09.677Z,7.70
2022-12-26T21:27:42.800Z,6.70
2022-12-26T21:30:15.149Z,5.73
2022-12-26T21:32:43.650Z,5.83
2022-12-26T21:35:12.609Z,5.97
2022-12-26T21:37:51.494Z,5.03
2022-12-26T21:40:22.936Z,6.13
2022-12-26T21:42:51.499Z,6.37
2022-12-26T21:45:21.714Z,6.63
2022-12-26T21:47:50.216Z,5.97
2022-12-26T21:50:19.244Z,8.17
2022-12-26T21:52:47.764Z,6.53
2022-12-26T21:55:29.985Z,6.07
2022-12-26T21:58:00.629Z,6.57
2022-12-26T22:00:31.321Z,6.43
2022-12-26T22:03:17.034Z,7.10
2022-12-26T22:05:45.828Z,7.13
2022-12-26T22:08:15.204Z,5.30
2022-12-26T22:11:03.711Z,6.83
2022-12-26T22:13:38.680Z,6.67
2022-12-26T22:16:11.097Z,5.80
2022-12-26T22:18:42.129Z,6.27
2022-12-26T22:21:13.201Z,5.60
2022-12-26T22:23:44.031Z,5.53
2022-12-26T22:26:15.899Z,5.07
2022-12-26T22:28:44.702Z,5.77
2022-12-26T22:31:20.973Z,5.87
2022-12-26T22:33:54.272Z,5.47
2022-12-26T22:36:23.367Z,6.50
2022-12-26T22:38:52.032Z,5.37
2022-12-26T22:41:20.777Z,6.57
2022-12-26T22:43:49.525Z,6.80
2022-12-26T22:46:20.163Z,6.40
2022-12-26T22:48:48.658Z,5.83
2022-12-26T22:51:19.271Z,7.80
2022-12-26T22:53:48.647Z,6.30
2022-12-26T22:56:17.570Z,5.03
2022-12-26T22:58:45.999Z,6.23
2022-12-26T23:01:16.485Z,6.13
2022-12-26T23:03:46.979Z,5.60
2022-12-26T23:06:24.219Z,6.07
2022-12-26T23:08:56.577Z,6.53
2022-12-26T23:11:34.023Z,5.70
2022-12-26T23:14:04.941Z,5.60
2022-12-26T23:16:39.856Z,8.00
2022-12-26T23:19:34.481Z,9.10
2022-12-26T23:22:04.997Z,10.37
2022-12-26T23:24:34.387Z,37.83
2022-12-26T23:27:18.998Z,35.93
2022-12-26T23:30:13.873Z,39.23
2022-12-26T23:32:45.007Z,25.17
2022-12-26T23:35:15.338Z,10.37
2022-12-26T23:37:44.466Z,51.67
2022-12-26T23:40:15.390Z,45.67
2022-12-26T23:42:44.428Z,53.20
2022-12-26T23:45:14.631Z,54.70
2022-12-26T23:47:45.127Z,61.83
2022-12-26T23:50:17.115Z,73.43
2022-12-26T23:52:45.884Z,58.37
2022-12-26T23:55:14.812Z,42.63
2022-12-26T23:57:43.467Z,47.90
